N44OM KBOI-KSUN
Flight info
| Callsign | N44OM |
|---|---|
| Flight time | 0h 28m |
| Altitude | 17000 |
| Route | ROARR PRESN |
| Aircraft | B350/L-SBGRW/S |
Departure
| Time | 2026-05-04 17:10 |
|---|---|
| Airport | Boise Air Terminal/Gowen Field (KBOI) |
Arrival
| Time | 2026-05-04 17:38 |
|---|---|
| Airport | Friedman Memorial Airport (KSUN) |
| Time | Latitude | Longitude | Altitude | Speed | Heading |
|---|---|---|---|---|---|
| 2026-05-04 16:55 | 43.56526 | -116.21215 | 2878 ft | 0 kts | 269° |
| 2026-05-04 17:03 | 43.56526 | -116.21216 | 2878 ft | 0 kts | 269° |
| 2026-05-04 17:04 | 43.56500 | -116.21252 | 2878 ft | 8 kts | 201° |
| 2026-05-04 17:04 | 43.56433 | -116.21311 | 2878 ft | 4 kts | 199° |
| 2026-05-04 17:05 | 43.56409 | -116.21319 | 2878 ft | 0 kts | 188° |
| 2026-05-04 17:05 | 43.56341 | -116.21315 | 2878 ft | 6 kts | 146° |
| 2026-05-04 17:06 | 43.56267 | -116.21117 | 2878 ft | 14 kts | 114° |
| 2026-05-04 17:06 | 43.56230 | -116.21013 | 2878 ft | 16 kts | 116° |
| 2026-05-04 17:07 | 43.56146 | -116.20866 | 2878 ft | 7 kts | 202° |
| 2026-05-04 17:07 | 43.56118 | -116.20881 | 2878 ft | 9 kts | 200° |
| 2026-05-04 17:07 | 43.56024 | -116.20940 | 2877 ft | 7 kts | 207° |
| 2026-05-04 17:07 | 43.55977 | -116.20973 | 2877 ft | 0 kts | 206° |
| 2026-05-04 17:08 | 43.55920 | -116.21066 | 2877 ft | 11 kts | 271° |
| 2026-05-04 17:08 | 43.56011 | -116.21355 | 2878 ft | 77 kts | 296° |
| 2026-05-04 17:09 | 43.56356 | -116.22358 | 2914 ft | 145 kts | 295° |
| 2026-05-04 17:09 | 43.56862 | -116.23707 | 3286 ft | 167 kts | 301° |
| 2026-05-04 17:09 | 43.57546 | -116.25153 | 3467 ft | 196 kts | 307° |
| 2026-05-04 17:10 | 43.59064 | -116.28177 | 4075 ft | 175 kts | 294° |
| 2026-05-04 17:10 | 43.60945 | -116.30071 | 5935 ft | 130 kts | 3° |
| 2026-05-04 17:11 | 43.61903 | -116.29778 | 6029 ft | 155 kts | 35° |
| 2026-05-04 17:11 | 43.62350 | -116.28391 | 6137 ft | 176 kts | 95° |
| 2026-05-04 17:13 | 43.55363 | -116.18752 | 8192 ft | 186 kts | 119° |
| 2026-05-04 17:14 | 43.53799 | -116.13876 | 9007 ft | 187 kts | 114° |
| 2026-05-04 17:14 | 43.53269 | -116.12237 | 9268 ft | 188 kts | 113° |
| 2026-05-04 17:14 | 43.52234 | -116.08927 | 9794 ft | 189 kts | 113° |
| 2026-05-04 17:15 | 43.51708 | -116.07269 | 10025 ft | 189 kts | 113° |
| 2026-05-04 17:15 | 43.50657 | -116.03948 | 10490 ft | 191 kts | 113° |
| 2026-05-04 17:16 | 43.49587 | -116.00570 | 10950 ft | 193 kts | 114° |
| 2026-05-04 17:16 | 43.47965 | -115.95450 | 11645 ft | 195 kts | 114° |
| 2026-05-04 17:17 | 43.47419 | -115.93728 | 11869 ft | 196 kts | 114° |
| 2026-05-04 17:17 | 43.45766 | -115.88528 | 12539 ft | 200 kts | 114° |
| 2026-05-04 17:18 | 43.45216 | -115.86800 | 12780 ft | 199 kts | 114° |
| 2026-05-04 17:18 | 43.44097 | -115.83274 | 13616 ft | 204 kts | 114° |
| 2026-05-04 17:19 | 43.42944 | -115.79687 | 14726 ft | 205 kts | 113° |
| 2026-05-04 17:19 | 43.41796 | -115.76076 | 15838 ft | 208 kts | 112° |
| 2026-05-04 17:20 | 43.40606 | -115.72351 | 16679 ft | 224 kts | 113° |
| 2026-05-04 17:20 | 43.39271 | -115.68200 | 16895 ft | 253 kts | 112° |
| 2026-05-04 17:20 | 43.38547 | -115.65923 | 16930 ft | 264 kts | 113° |
| 2026-05-04 17:21 | 43.37015 | -115.61163 | 16950 ft | 278 kts | 113° |
| 2026-05-04 17:21 | 43.35427 | -115.56230 | 16957 ft | 285 kts | 113° |
| 2026-05-04 17:22 | 43.34634 | -115.53764 | 16962 ft | 287 kts | 113° |
| 2026-05-04 17:22 | 43.33823 | -115.51254 | 16962 ft | 288 kts | 113° |
| 2026-05-04 17:23 | 43.31379 | -115.43692 | 16960 ft | 289 kts | 113° |
| 2026-05-04 17:23 | 43.30576 | -115.41155 | 16953 ft | 290 kts | 111° |
| 2026-05-04 17:23 | 43.29406 | -115.35882 | 16956 ft | 289 kts | 103° |
| 2026-05-04 17:24 | 43.28964 | -115.33193 | 16958 ft | 289 kts | 102° |
| 2026-05-04 17:24 | 43.28275 | -115.25040 | 16961 ft | 289 kts | 96° |
| 2026-05-04 17:25 | 43.28069 | -115.22296 | 16961 ft | 289 kts | 95° |
| 2026-05-04 17:25 | 43.27637 | -115.16800 | 16959 ft | 290 kts | 95° |
| 2026-05-04 17:26 | 43.27209 | -115.11327 | 16959 ft | 290 kts | 96° |
| 2026-05-04 17:26 | 43.26555 | -115.03046 | 16920 ft | 292 kts | 96° |
| 2026-05-04 17:27 | 43.26116 | -114.97512 | 16884 ft | 292 kts | 96° |
| 2026-05-04 17:27 | 43.25674 | -114.91984 | 16878 ft | 291 kts | 96° |
| 2026-05-04 17:28 | 43.25228 | -114.86516 | 16880 ft | 290 kts | 96° |
| 2026-05-04 17:29 | 43.24559 | -114.78258 | 16889 ft | 291 kts | 96° |
| 2026-05-04 17:29 | 43.23880 | -114.69985 | 16884 ft | 291 kts | 96° |
| 2026-05-04 17:30 | 43.23199 | -114.61751 | 16884 ft | 291 kts | 96° |
| 2026-05-04 17:31 | 43.22736 | -114.56214 | 16744 ft | 294 kts | 96° |
| 2026-05-04 17:31 | 43.22043 | -114.47937 | 15531 ft | 291 kts | 96° |
| 2026-05-04 17:32 | 43.21583 | -114.42525 | 14739 ft | 284 kts | 97° |
| 2026-05-04 17:33 | 43.21120 | -114.34502 | 12900 ft | 279 kts | 75° |
| 2026-05-04 17:33 | 43.22082 | -114.32264 | 12295 ft | 273 kts | 40° |
| 2026-05-04 17:34 | 43.27416 | -114.31080 | 10682 ft | 262 kts | 358° |
| 2026-05-04 17:34 | 43.29232 | -114.30943 | 10278 ft | 261 kts | 2° |
| 2026-05-04 17:35 | 43.34596 | -114.30579 | 9061 ft | 257 kts | 2° |
| 2026-05-04 17:35 | 43.37972 | -114.29324 | 8189 ft | 253 kts | 34° |
| 2026-05-04 17:35 | 43.39361 | -114.27859 | 7720 ft | 251 kts | 39° |
| 2026-05-04 17:36 | 43.40743 | -114.26643 | 7632 ft | 223 kts | 22° |
| 2026-05-04 17:36 | 43.42229 | -114.26089 | 7067 ft | 221 kts | 8° |
| 2026-05-04 17:36 | 43.43702 | -114.25942 | 6675 ft | 210 kts | 0° |
| 2026-05-04 17:36 | 43.45117 | -114.25903 | 6368 ft | 198 kts | 359° |
| 2026-05-04 17:37 | 43.46400 | -114.26188 | 6044 ft | 179 kts | 341° |
| 2026-05-04 17:37 | 43.47480 | -114.26861 | 5717 ft | 162 kts | 328° |
| 2026-05-04 17:37 | 43.48318 | -114.27603 | 5549 ft | 129 kts | 325° |
| 2026-05-04 17:37 | 43.49067 | -114.28329 | 5385 ft | 134 kts | 325° |
| 2026-05-04 17:38 | 43.49800 | -114.28996 | 5281 ft | 115 kts | 322° |
| 2026-05-04 17:38 | 43.50174 | -114.29363 | 5290 ft | 19 kts | 326° |
| 2026-05-04 17:38 | 43.50332 | -114.29516 | 5294 ft | 31 kts | 324° |
| 2026-05-04 17:38 | 43.50387 | -114.29620 | 5298 ft | 10 kts | 255° |
| 2026-05-04 17:39 | 43.50433 | -114.29758 | 5301 ft | 14 kts | 326° |
| 2026-05-04 17:39 | 43.50479 | -114.29802 | 5303 ft | 13 kts | 325° |
| 2026-05-04 17:39 | 43.50547 | -114.29837 | 5305 ft | 9 kts | 334° |
| 2026-05-04 17:40 | 43.50589 | -114.29879 | 5307 ft | 6 kts | 325° |
| 2026-05-04 17:40 | 43.50624 | -114.29912 | 5308 ft | 4 kts | 324° |
| 2026-05-04 17:40 | 43.50672 | -114.29961 | 5310 ft | 5 kts | 324° |
| 2026-05-04 17:40 | 43.50714 | -114.30001 | 5309 ft | 11 kts | 325° |
| 2026-05-04 17:41 | 43.50784 | -114.30064 | 5307 ft | 9 kts | 322° |
| 2026-05-04 17:41 | 43.50776 | -114.30126 | 5311 ft | 11 kts | 235° |
| 2026-05-04 17:41 | 43.50745 | -114.30186 | 5314 ft | 0 kts | 233° |